Time;durP1;ratioP1;P1;durP2;ratioP2;P2;SDS_P1;SDS_P2;PMS_P1;PMS_P2;Temp;Humidity;BMP_temperature;BMP_pressure;BME280_temperature;BME280_humidity;BME280_pressure;Samples;Min_cycle;Max_cycle;Signal;HPM_P1;HPM_P2
2023/01/20 00:03:39;;;;;;;1.10;0.55;;;-6.00;99.90;;;;;;20947277;28;20059;-58
2023/01/20 00:13:41;;;;;;;1.05;0.50;;;-6.20;99.90;;;;;;20959826;28;20086;-59
2023/01/20 00:23:43;;;;;;;1.80;0.68;;;-6.30;99.90;;;;;;20988172;28;20036;-58
2023/01/20 00:33:46;;;;;;;1.35;0.75;;;-6.00;99.90;;;;;;20915974;28;20033;-58
2023/01/20 00:43:48;;;;;;;2.55;0.90;;;-6.00;99.90;;;;;;20910433;28;20036;-58
2023/01/20 00:53:49;;;;;;;1.38;0.50;;;-6.10;99.90;;;;;;20909411;28;20531;-58
2023/01/20 01:03:55;;;;;;;1.35;0.70;;;-6.10;99.90;;;;;;20908757;28;20270;-59
2023/01/20 01:13:58;;;;;;;1.40;0.57;;;-6.20;99.90;;;;;;20907474;28;20110;-58
2023/01/20 01:23:59;;;;;;;0.80;0.40;;;-6.60;99.90;;;;;;20985430;28;20036;-58
2023/01/20 01:34:01;;;;;;;1.55;0.60;;;-6.80;99.90;;;;;;20989572;28;20028;-58
2023/01/20 01:44:11;;;;;;;2.78;0.80;;;-6.60;99.90;;;;;;20906927;28;20102;-58
2023/01/20 01:54:17;;;;;;;3.28;0.70;;;-6.40;99.90;;;;;;20904395;28;20033;-58
2023/01/20 02:04:22;;;;;;;2.53;0.82;;;-6.40;99.90;;;;;;20944086;28;20118;-58
2023/01/20 02:14:37;;;;;;;1.23;0.55;;;-6.30;99.90;;;;;;20987485;28;20489;-58
2023/01/20 02:24:57;;;;;;;1.67;0.70;;;-6.50;99.90;;;;;;20983870;28;20036;-58
2023/01/20 02:35:18;;;;;;;1.27;0.57;;;-6.60;99.90;;;;;;20902181;28;20060;-58
2023/01/20 02:45:42;;;;;;;1.27;0.50;;;-7.00;99.90;;;;;;20909001;28;20473;-58
2023/01/20 02:55:48;;;;;;;1.10;0.75;;;-6.70;99.90;;;;;;20979155;28;20456;-58
2023/01/20 03:05:54;;;;;;;1.85;0.65;;;-6.30;99.90;;;;;;20973600;28;20045;-58
2023/01/20 03:16:23;;;;;;;1.98;0.80;;;-6.30;99.90;;;;;;20910960;28;20067;-58
2023/01/20 03:26:25;;;;;;;1.38;0.60;;;-6.30;99.90;;;;;;20918947;28;20025;-56
2023/01/20 03:36:29;;;;;;;0.90;0.50;;;-6.40;99.90;;;;;;20898062;28;20055;-58
2023/01/20 03:46:52;;;;;;;2.00;0.50;;;-6.30;99.90;;;;;;20931230;28;20040;-58
2023/01/20 03:57:19;;;;;;;0.98;0.40;;;-6.10;99.90;;;;;;20953762;28;20244;-58
2023/01/20 04:07:23;;;;;;;0.93;0.40;;;-6.10;99.90;;;;;;20913041;28;20091;-58
2023/01/20 04:17:27;;;;;;;1.45;0.60;;;-6.00;99.90;;;;;;20912337;28;20029;-60
2023/01/20 04:27:29;;;;;;;1.35;0.50;;;-5.70;99.90;;;;;;20910968;28;20099;-60
2023/01/20 04:37:30;;;;;;;1.33;0.35;;;-5.60;99.90;;;;;;20949259;28;20033;-58
2023/01/20 04:47:32;;;;;;;1.05;0.40;;;-5.70;99.90;;;;;;20910240;28;20036;-60
2023/01/20 04:57:34;;;;;;;1.25;0.30;;;-5.60;99.90;;;;;;20910260;28;20053;-59
2023/01/20 05:07:35;;;;;;;0.95;0.50;;;-5.40;99.90;;;;;;20872764;28;20034;-58
2023/01/20 05:17:37;;;;;;;1.75;0.43;;;-5.40;99.90;;;;;;20795901;28;20036;-60
2023/01/20 05:27:39;;;;;;;0.82;0.30;;;-5.30;99.90;;;;;;20907139;28;20029;-58
2023/01/20 05:37:40;;;;;;;0.95;0.40;;;-5.30;99.90;;;;;;20877086;28;20038;-59
2023/01/20 05:47:42;;;;;;;0.75;0.20;;;-5.30;99.90;;;;;;20849552;28;20063;-57
2023/01/20 05:57:44;;;;;;;0.70;0.40;;;-5.30;99.90;;;;;;20882454;28;20041;-57
2023/01/20 06:07:46;;;;;;;2.10;0.30;;;-5.20;99.90;;;;;;20904391;28;20025;-58
2023/01/20 06:17:47;;;;;;;0.82;0.40;;;-5.40;99.90;;;;;;20902821;28;20029;-58
2023/01/20 06:27:49;;;;;;;2.05;0.25;;;-5.40;99.90;;;;;;20885388;28;20033;-60
2023/01/20 06:37:51;;;;;;;1.05;0.50;;;-5.20;99.90;;;;;;20911022;28;20111;-60
2023/01/20 06:47:53;;;;;;;1.25;0.40;;;-5.30;99.90;;;;;;20908008;28;20031;-58
2023/01/20 06:57:54;;;;;;;1.13;0.50;;;-5.50;99.90;;;;;;20918874;28;20033;-58
2023/01/20 07:07:56;;;;;;;0.75;0.47;;;-5.40;99.90;;;;;;20918832;28;20037;-57
2023/01/20 07:17:57;;;;;;;2.53;0.45;;;-5.20;99.90;;;;;;20914964;28;20051;-58
2023/01/20 07:27:59;;;;;;;1.70;0.60;;;-5.10;99.90;;;;;;20869508;28;20029;-58
2023/01/20 07:38:00;;;;;;;1.70;0.40;;;-5.00;99.90;;;;;;20905350;28;20091;-61
2023/01/20 07:48:02;;;;;;;0.68;0.40;;;-4.90;99.90;;;;;;20914749;28;20115;-58
2023/01/20 07:58:04;;;;;;;1.50;0.60;;;-4.40;99.90;;;;;;20913580;28;20052;-58
2023/01/20 08:08:05;;;;;;;1.27;0.35;;;-3.90;99.90;;;;;;20913121;28;20029;-57
2023/01/20 08:18:07;;;;;;;1.08;0.40;;;-3.50;99.90;;;;;;20912353;28;20036;-58
2023/01/20 08:28:08;;;;;;;0.85;0.43;;;-3.40;99.90;;;;;;20912962;28;20087;-58
2023/01/20 08:38:10;;;;;;;1.08;0.50;;;-3.20;99.90;;;;;;20910789;28;20478;-58
2023/01/20 08:48:11;;;;;;;1.50;0.65;;;-3.30;99.90;;;;;;20940816;28;20082;-58
2023/01/20 08:58:13;;;;;;;0.50;0.30;;;-3.30;99.90;;;;;;20974709;28;20045;-57
2023/01/20 09:08:16;;;;;;;0.95;0.38;;;-2.10;99.90;;;;;;20958838;28;20036;-58
2023/01/20 09:18:17;;;;;;;2.60;0.50;;;-1.50;97.50;;;;;;20938797;28;20036;-56
2023/01/20 09:28:19;;;;;;;2.55;0.60;;;-2.60;98.20;;;;;;20990059;28;20062;-58
2023/01/20 09:59:23;;;;;;;1.90;0.40;;;0.00;95.70;;;;;;20925997;28;20045;-57
2023/01/20 10:09:34;;;;;;;0.60;0.40;;;0.50;94.40;;;;;;20903631;28;20513;-55
2023/01/20 10:19:44;;;;;;;1.38;0.57;;;1.50;92.40;;;;;;20822669;28;20045;-58
2023/01/20 10:29:52;;;;;;;2.03;0.60;;;2.00;92.80;;;;;;20850293;28;20029;-58
2023/01/20 10:40:15;;;;;;;1.45;0.60;;;1.80;91.60;;;;;;20938212;28;20064;-58
2023/01/20 10:50:33;;;;;;;1.80;0.63;;;1.40;91.30;;;;;;20949954;28;20098;-59
2023/01/20 11:00:35;;;;;;;1.45;0.60;;;1.60;89.70;;;;;;20984480;28;20623;-59
2023/01/20 11:10:37;;;;;;;1.98;0.52;;;0.90;90.70;;;;;;20933100;28;20033;-59
2023/01/20 11:20:52;;;;;;;0.82;0.40;;;0.40;91.00;;;;;;20900598;28;20370;-58
2023/01/20 11:30:55;;;;;;;1.13;0.50;;;0.60;90.50;;;;;;20900922;28;20036;-57
2023/01/20 11:40:58;;;;;;;0.60;0.40;;;-0.30;91.80;;;;;;20916349;28;20424;-58
2023/01/20 11:51:03;;;;;;;1.45;0.60;;;-0.70;92.60;;;;;;20894539;28;20467;-57
2023/01/20 12:01:22;;;;;;;1.38;0.50;;;-0.50;91.70;;;;;;20870078;28;20086;-57
2023/01/20 12:11:30;;;;;;;2.88;0.57;;;0.50;91.00;;;;;;20837729;28;20551;-57
2023/01/20 12:21:39;;;;;;;1.05;0.57;;;0.70;91.10;;;;;;20887637;28;20032;-56
2023/01/20 12:31:44;;;;;;;4.93;0.70;;;0.40;91.60;;;;;;20929471;28;20041;-54
2023/01/20 12:42:29;;;;;;;1.15;0.60;;;0.80;90.10;;;;;;20931021;28;20041;-57
2023/01/20 12:52:56;;;;;;;1.02;0.55;;;0.10;91.20;;;;;;20976302;28;20567;-58
2023/01/20 13:03:08;;;;;;;0.95;0.60;;;-0.10;90.50;;;;;;20973942;28;20106;-55
2023/01/20 13:13:17;;;;;;;1.38;0.60;;;-0.10;90.30;;;;;;20933133;28;20123;-55
2023/01/20 13:23:26;;;;;;;1.77;0.50;;;-0.40;90.40;;;;;;20869802;28;20389;-59
2023/01/20 13:33:36;;;;;;;5.60;1.02;;;-0.90;91.10;;;;;;20898093;28;20052;-58
2023/01/20 13:43:41;;;;;;;;;;;-1.30;92.10;;;;;;20899995;28;20029;-58
2023/01/20 13:53:42;;;;;;;1.55;0.73;;;-1.20;91.90;;;;;;20896664;28;19959;-58
2023/01/20 14:04:13;;;;;;;4.13;0.93;;;-1.30;91.90;;;;;;20896751;28;20056;-56
2023/01/20 14:14:18;;;;;;;1.73;0.80;;;-1.60;92.90;;;;;;20897659;28;20029;-58
2023/01/20 14:24:41;;;;;;;1.52;0.65;;;-1.90;93.20;;;;;;20901512;28;20375;-58
2023/01/20 14:34:43;;;;;;;1.58;0.70;;;-2.10;92.60;;;;;;20899035;28;20033;-58
2023/01/20 14:44:53;;;;;;;1.45;0.63;;;-2.40;93.00;;;;;;20895178;28;20032;-55
2023/01/20 14:54:55;;;;;;;3.80;0.50;;;-2.80;93.00;;;;;;20899698;28;20075;-58
2023/01/20 15:04:57;;;;;;;1.48;0.50;;;-3.10;93.00;;;;;;20900027;28;20040;-58
2023/01/20 15:15:09;;;;;;;2.00;0.60;;;-3.20;93.20;;;;;;20915349;28;20155;-57
2023/01/20 15:25:12;;;;;;;1.33;0.50;;;-3.10;93.00;;;;;;20914844;28;20032;-57
2023/01/20 15:35:19;;;;;;;1.25;0.47;;;-2.90;92.30;;;;;;20913727;28;20029;-58
2023/01/20 15:45:21;;;;;;;0.70;0.50;;;-3.10;92.60;;;;;;20915343;28;20036;-58
2023/01/20 15:55:23;;;;;;;0.75;0.30;;;-3.20;92.40;;;;;;20909921;28;20506;-58
2023/01/20 16:05:24;;;;;;;0.63;0.30;;;-3.40;92.40;;;;;;20907305;28;20068;-58
2023/01/20 16:15:27;;;;;;;2.17;0.57;;;-3.60;92.50;;;;;;20907140;28;20040;-59
2023/01/20 16:25:29;;;;;;;3.33;0.30;;;-3.40;91.70;;;;;;20907616;28;20033;-58
2023/01/20 16:35:30;;;;;;;2.10;0.50;;;-3.40;91.00;;;;;;20909387;28;20102;-58
2023/01/20 16:45:33;;;;;;;0.55;0.20;;;-3.40;91.20;;;;;;20908025;28;20024;-58
2023/01/20 16:55:35;;;;;;;0.68;0.20;;;-3.70;91.20;;;;;;20897100;28;20042;-58
2023/01/20 17:05:36;;;;;;;0.40;0.10;;;-3.70;90.70;;;;;;20877528;28;20060;-57
2023/01/20 17:15:41;;;;;;;1.95;0.35;;;-3.60;90.60;;;;;;20875394;28;20371;-58
2023/01/20 17:25:43;;;;;;;0.40;0.10;;;-3.60;90.50;;;;;;20874742;28;20083;-57
2023/01/20 17:35:56;;;;;;;0.65;0.20;;;-3.80;90.30;;;;;;20882038;28;20025;-57
2023/01/20 17:45:58;;;;;;;2.65;0.30;;;-3.70;90.30;;;;;;20899104;28;20438;-58
2023/01/20 17:56:00;;;;;;;0.47;0.20;;;-3.80;90.30;;;;;;20903697;28;20068;-57
2023/01/20 18:06:02;;;;;;;0.60;0.20;;;-3.90;90.50;;;;;;20902838;28;20025;-59
2023/01/20 18:16:12;;;;;;;0.50;0.20;;;-4.00;91.10;;;;;;20901344;28;20021;-57
2023/01/20 18:26:16;;;;;;;2.10;0.30;;;-3.90;90.80;;;;;;20881182;28;20077;-58
2023/01/20 18:36:24;;;;;;;0.47;0.20;;;-4.00;90.40;;;;;;20899864;28;20287;-58
2023/01/20 18:46:26;;;;;;;0.50;0.20;;;-4.20;91.20;;;;;;20899517;28;20068;-58
2023/01/20 18:56:28;;;;;;;0.95;0.28;;;-4.00;90.40;;;;;;20897377;28;20107;-57
2023/01/20 19:06:33;;;;;;;0.45;0.20;;;-4.10;90.60;;;;;;20898752;28;20029;-57
2023/01/20 19:16:41;;;;;;;1.75;0.20;;;-4.20;90.50;;;;;;20892301;28;20044;-56
2023/01/20 19:26:42;;;;;;;0.30;0.15;;;-4.00;90.00;;;;;;20898898;28;20056;-58
2023/01/20 19:36:44;;;;;;;0.30;0.10;;;-4.00;89.50;;;;;;20898442;28;20025;-58
2023/01/20 19:46:46;;;;;;;0.60;0.20;;;-3.90;89.80;;;;;;20898367;28;20548;-60
2023/01/20 19:56:48;;;;;;;1.17;0.40;;;-4.00;90.00;;;;;;20888821;28;20037;-58
2023/01/20 20:06:50;;;;;;;0.47;0.20;;;-4.10;90.00;;;;;;20912421;28;20091;-59
2023/01/20 20:16:51;;;;;;;0.63;0.20;;;-4.00;90.10;;;;;;20911694;28;20025;-58
2023/01/20 20:26:53;;;;;;;0.50;0.20;;;-4.10;90.00;;;;;;20893131;28;20040;-57
2023/01/20 20:36:55;;;;;;;0.40;0.20;;;-4.20;90.20;;;;;;20909382;28;20088;-58
2023/01/20 20:46:57;;;;;;;0.55;0.25;;;-4.10;89.10;;;;;;20907213;28;20037;-59
2023/01/20 20:56:59;;;;;;;0.50;0.20;;;-4.00;89.40;;;;;;20909097;28;20342;-59
2023/01/20 21:07:01;;;;;;;0.82;0.30;;;-4.10;90.10;;;;;;20906771;28;20059;-59
2023/01/20 21:17:02;;;;;;;1.33;0.50;;;-4.30;89.80;;;;;;20888462;28;20037;-58
2023/01/20 21:27:05;;;;;;;0.68;0.30;;;-4.30;90.40;;;;;;20906641;28;20032;-58
2023/01/20 21:37:07;;;;;;;1.75;0.50;;;-4.30;90.10;;;;;;20905134;28;20029;-58
2023/01/20 21:47:09;;;;;;;0.57;0.30;;;-4.30;90.70;;;;;;20904528;28;20095;-58
2023/01/20 21:57:11;;;;;;;0.50;0.22;;;-4.60;91.10;;;;;;20886047;28;20439;-58
2023/01/20 22:07:14;;;;;;;0.52;0.28;;;-4.70;91.00;;;;;;20903041;28;20029;-58
2023/01/20 22:17:16;;;;;;;1.60;0.30;;;-4.50;90.60;;;;;;20901908;28;20429;-57
2023/01/20 22:27:18;;;;;;;0.70;0.30;;;-4.30;90.70;;;;;;20902044;28;20037;-58
2023/01/20 22:37:20;;;;;;;0.50;0.20;;;-4.60;91.30;;;;;;20898266;28;20120;-57
2023/01/20 22:47:21;;;;;;;1.00;0.25;;;-4.70;91.40;;;;;;20881653;28;20029;-58
2023/01/20 22:57:23;;;;;;;0.60;0.30;;;-4.70;91.40;;;;;;20900770;28;20041;-57
2023/01/20 23:07:25;;;;;;;0.52;0.20;;;-4.70;90.70;;;;;;20899634;28;20463;-58
2023/01/20 23:17:28;;;;;;;0.40;0.17;;;-4.40;90.00;;;;;;20900634;28;20041;-58
2023/01/20 23:27:30;;;;;;;0.50;0.20;;;-4.30;90.30;;;;;;20899818;28;20032;-59
2023/01/20 23:37:32;;;;;;;0.65;0.30;;;-4.70;90.90;;;;;;20896717;28;20029;-58
2023/01/20 23:47:34;;;;;;;0.47;0.28;;;-4.80;91.30;;;;;;20914105;28;20037;-57
2023/01/20 23:57:36;;;;;;;0.63;0.20;;;-4.60;90.90;;;;;;20913173;28;20103;-57
